sensor_id;sensor_type;location;lat;lon;timestamp;P1;durP1;ratioP1;P2;durP2;ratioP2
49131;SDS011;35149;51.196;6.204;2023-02-15T00:00:26;23.08;;;14.95;;
49131;SDS011;35149;51.196;6.204;2023-02-15T00:02:52;27.52;;;15.13;;
49131;SDS011;35149;51.196;6.204;2023-02-15T00:05:19;25.17;;;16.00;;
49131;SDS011;35149;51.196;6.204;2023-02-15T00:07:46;23.92;;;15.30;;
49131;SDS011;35149;51.196;6.204;2023-02-15T00:10:15;27.52;;;15.30;;
49131;SDS011;35149;51.196;6.204;2023-02-15T00:12:43;28.67;;;15.38;;
49131;SDS011;35149;51.196;6.204;2023-02-15T00:15:15;28.52;;;15.07;;
49131;SDS011;35149;51.196;6.204;2023-02-15T00:17:46;26.23;;;14.18;;
49131;SDS011;35149;51.196;6.204;2023-02-15T00:20:13;26.13;;;16.17;;
49131;SDS011;35149;51.196;6.204;2023-02-15T00:22:46;24.95;;;15.30;;
49131;SDS011;35149;51.196;6.204;2023-02-15T00:25:15;28.08;;;15.52;;
49131;SDS011;35149;51.196;6.204;2023-02-15T00:27:41;23.45;;;14.60;;
49131;SDS011;35149;51.196;6.204;2023-02-15T00:30:10;25.10;;;16.38;;
49131;SDS011;35149;51.196;6.204;2023-02-15T00:32:46;24.23;;;14.32;;
49131;SDS011;35149;51.196;6.204;2023-02-15T00:35:16;22.88;;;14.10;;
49131;SDS011;35149;51.196;6.204;2023-02-15T00:37:43;22.00;;;15.07;;
49131;SDS011;35149;51.196;6.204;2023-02-15T00:40:12;24.48;;;14.40;;
49131;SDS011;35149;51.196;6.204;2023-02-15T00:42:39;25.20;;;14.73;;
49131;SDS011;35149;51.196;6.204;2023-02-15T00:45:07;25.20;;;15.88;;
49131;SDS011;35149;51.196;6.204;2023-02-15T00:47:36;21.20;;;13.55;;
49131;SDS011;35149;51.196;6.204;2023-02-15T00:50:06;24.45;;;15.40;;
49131;SDS011;35149;51.196;6.204;2023-02-15T00:52:36;26.00;;;14.68;;
49131;SDS011;35149;51.196;6.204;2023-02-15T00:55:03;25.63;;;14.98;;
49131;SDS011;35149;51.196;6.204;2023-02-15T00:57:33;21.88;;;14.30;;
49131;SDS011;35149;51.196;6.204;2023-02-15T00:59:59;22.58;;;14.38;;
49131;SDS011;35149;51.196;6.204;2023-02-15T01:02:30;24.00;;;15.00;;
49131;SDS011;35149;51.196;6.204;2023-02-15T01:04:57;23.90;;;14.45;;
49131;SDS011;35149;51.196;6.204;2023-02-15T01:07:30;27.27;;;15.32;;
49131;SDS011;35149;51.196;6.204;2023-02-15T01:09:59;22.40;;;14.30;;
49131;SDS011;35149;51.196;6.204;2023-02-15T01:12:26;25.48;;;15.38;;
49131;SDS011;35149;51.196;6.204;2023-02-15T01:14:52;24.85;;;15.30;;
49131;SDS011;35149;51.196;6.204;2023-02-15T01:17:19;27.40;;;15.13;;
49131;SDS011;35149;51.196;6.204;2023-02-15T01:19:48;23.45;;;15.30;;
49131;SDS011;35149;51.196;6.204;2023-02-15T01:22:18;20.45;;;13.73;;
49131;SDS011;35149;51.196;6.204;2023-02-15T01:24:45;26.42;;;15.65;;
49131;SDS011;35149;51.196;6.204;2023-02-15T01:27:14;26.40;;;14.80;;
49131;SDS011;35149;51.196;6.204;2023-02-15T01:29:44;25.20;;;15.55;;
49131;SDS011;35149;51.196;6.204;2023-02-15T01:32:11;21.05;;;14.70;;
49131;SDS011;35149;51.196;6.204;2023-02-15T01:34:41;22.42;;;14.82;;
49131;SDS011;35149;51.196;6.204;2023-02-15T01:37:07;25.70;;;15.45;;
49131;SDS011;35149;51.196;6.204;2023-02-15T01:39:37;26.23;;;15.30;;
49131;SDS011;35149;51.196;6.204;2023-02-15T01:42:08;23.90;;;15.07;;
49131;SDS011;35149;51.196;6.204;2023-02-15T01:47:21;20.58;;;11.05;;
49131;SDS011;35149;51.196;6.204;2023-02-15T01:50:04;25.08;;;15.10;;
49131;SDS011;35149;51.196;6.204;2023-02-15T01:52:49;26.25;;;14.85;;
49131;SDS011;35149;51.196;6.204;2023-02-15T01:55:20;29.15;;;16.65;;
49131;SDS011;35149;51.196;6.204;2023-02-15T01:57:50;24.38;;;14.93;;
49131;SDS011;35149;51.196;6.204;2023-02-15T02:00:18;26.27;;;15.05;;
49131;SDS011;35149;51.196;6.204;2023-02-15T02:02:46;25.17;;;14.75;;
49131;SDS011;35149;51.196;6.204;2023-02-15T02:05:16;22.27;;;14.48;;
49131;SDS011;35149;51.196;6.204;2023-02-15T02:07:45;22.67;;;14.75;;
49131;SDS011;35149;51.196;6.204;2023-02-15T02:10:21;30.00;;;17.70;;
49131;SDS011;35149;51.196;6.204;2023-02-15T02:12:49;28.80;;;16.92;;
49131;SDS011;35149;51.196;6.204;2023-02-15T02:15:27;25.35;;;15.02;;
49131;SDS011;35149;51.196;6.204;2023-02-15T02:18:23;23.80;;;15.32;;
49131;SDS011;35149;51.196;6.204;2023-02-15T02:24:23;28.88;;;16.73;;
49131;SDS011;35149;51.196;6.204;2023-02-15T02:27:01;27.98;;;16.00;;
49131;SDS011;35149;51.196;6.204;2023-02-15T02:44:16;28.48;;;15.98;;
49131;SDS011;35149;51.196;6.204;2023-02-15T02:47:10;22.80;;;15.88;;
49131;SDS011;35149;51.196;6.204;2023-02-15T02:50:03;25.10;;;15.85;;
49131;SDS011;35149;51.196;6.204;2023-02-15T02:52:39;26.05;;;16.48;;
49131;SDS011;35149;51.196;6.204;2023-02-15T02:58:20;25.67;;;15.70;;
49131;SDS011;35149;51.196;6.204;2023-02-15T03:01:02;23.05;;;14.63;;
49131;SDS011;35149;51.196;6.204;2023-02-15T03:03:41;26.40;;;15.95;;
49131;SDS011;35149;51.196;6.204;2023-02-15T03:06:14;25.25;;;14.77;;
49131;SDS011;35149;51.196;6.204;2023-02-15T03:09:00;27.45;;;14.57;;
49131;SDS011;35149;51.196;6.204;2023-02-15T03:11:31;26.23;;;15.13;;
49131;SDS011;35149;51.196;6.204;2023-02-15T03:13:58;25.98;;;14.88;;
49131;SDS011;35149;51.196;6.204;2023-02-15T03:16:27;25.60;;;15.82;;
49131;SDS011;35149;51.196;6.204;2023-02-15T03:19:01;27.42;;;16.33;;
49131;SDS011;35149;51.196;6.204;2023-02-15T03:21:40;27.98;;;16.85;;
49131;SDS011;35149;51.196;6.204;2023-02-15T03:24:17;30.58;;;15.40;;
49131;SDS011;35149;51.196;6.204;2023-02-15T03:26:50;25.35;;;15.23;;
49131;SDS011;35149;51.196;6.204;2023-02-15T03:29:21;26.45;;;14.50;;
49131;SDS011;35149;51.196;6.204;2023-02-15T03:31:53;27.75;;;16.00;;
49131;SDS011;35149;51.196;6.204;2023-02-15T03:34:29;24.30;;;14.43;;
49131;SDS011;35149;51.196;6.204;2023-02-15T03:37:05;27.92;;;15.10;;
49131;SDS011;35149;51.196;6.204;2023-02-15T03:40:15;31.70;;;16.45;;
49131;SDS011;35149;51.196;6.204;2023-02-15T03:45:42;32.00;;;16.13;;
49131;SDS011;35149;51.196;6.204;2023-02-15T03:48:31;28.38;;;16.17;;
49131;SDS011;35149;51.196;6.204;2023-02-15T03:51:07;32.45;;;16.83;;
49131;SDS011;35149;51.196;6.204;2023-02-15T03:53:57;27.52;;;16.70;;
49131;SDS011;35149;51.196;6.204;2023-02-15T03:56:25;30.15;;;17.15;;
49131;SDS011;35149;51.196;6.204;2023-02-15T03:58:52;31.92;;;17.60;;
49131;SDS011;35149;51.196;6.204;2023-02-15T04:01:38;34.05;;;18.60;;
49131;SDS011;35149;51.196;6.204;2023-02-15T04:04:33;31.10;;;17.25;;
49131;SDS011;35149;51.196;6.204;2023-02-15T04:07:05;32.35;;;17.50;;
49131;SDS011;35149;51.196;6.204;2023-02-15T04:09:35;29.55;;;18.42;;
49131;SDS011;35149;51.196;6.204;2023-02-15T04:12:22;30.80;;;18.10;;
49131;SDS011;35149;51.196;6.204;2023-02-15T04:14:51;37.33;;;19.02;;
49131;SDS011;35149;51.196;6.204;2023-02-15T04:17:37;36.35;;;17.80;;
49131;SDS011;35149;51.196;6.204;2023-02-15T04:20:11;39.83;;;19.88;;
49131;SDS011;35149;51.196;6.204;2023-02-15T04:22:56;36.53;;;20.25;;
49131;SDS011;35149;51.196;6.204;2023-02-15T04:25:42;35.97;;;18.73;;
49131;SDS011;35149;51.196;6.204;2023-02-15T04:28:11;36.63;;;19.23;;
49131;SDS011;35149;51.196;6.204;2023-02-15T04:30:38;36.88;;;19.60;;
49131;SDS011;35149;51.196;6.204;2023-02-15T04:33:06;31.52;;;18.25;;
49131;SDS011;35149;51.196;6.204;2023-02-15T04:35:36;37.58;;;20.77;;
49131;SDS011;35149;51.196;6.204;2023-02-15T04:38:08;35.78;;;18.80;;
49131;SDS011;35149;51.196;6.204;2023-02-15T04:40:40;33.03;;;19.25;;
49131;SDS011;35149;51.196;6.204;2023-02-15T04:43:17;34.67;;;18.25;;
49131;SDS011;35149;51.196;6.204;2023-02-15T04:45:49;38.30;;;18.90;;
49131;SDS011;35149;51.196;6.204;2023-02-15T04:48:17;37.40;;;19.13;;
49131;SDS011;35149;51.196;6.204;2023-02-15T04:50:46;34.22;;;19.60;;
49131;SDS011;35149;51.196;6.204;2023-02-15T04:53:12;35.55;;;19.50;;
49131;SDS011;35149;51.196;6.204;2023-02-15T04:55:43;37.63;;;18.97;;
49131;SDS011;35149;51.196;6.204;2023-02-15T04:58:14;34.75;;;19.65;;
49131;SDS011;35149;51.196;6.204;2023-02-15T05:00:43;37.47;;;19.70;;
49131;SDS011;35149;51.196;6.204;2023-02-15T05:03:09;34.10;;;19.30;;
49131;SDS011;35149;51.196;6.204;2023-02-15T05:05:36;34.10;;;18.42;;
49131;SDS011;35149;51.196;6.204;2023-02-15T05:08:06;31.65;;;18.40;;
49131;SDS011;35149;51.196;6.204;2023-02-15T05:10:37;31.98;;;18.70;;
49131;SDS011;35149;51.196;6.204;2023-02-15T05:13:04;34.45;;;19.65;;
49131;SDS011;35149;51.196;6.204;2023-02-15T05:15:30;40.25;;;19.85;;
49131;SDS011;35149;51.196;6.204;2023-02-15T05:17:58;36.50;;;21.40;;
49131;SDS011;35149;51.196;6.204;2023-02-15T05:20:25;34.30;;;19.65;;
49131;SDS011;35149;51.196;6.204;2023-02-15T05:22:58;33.60;;;18.73;;
49131;SDS011;35149;51.196;6.204;2023-02-15T05:25:25;36.70;;;18.85;;
49131;SDS011;35149;51.196;6.204;2023-02-15T05:28:10;33.75;;;19.38;;
49131;SDS011;35149;51.196;6.204;2023-02-15T05:30:50;35.38;;;19.77;;
49131;SDS011;35149;51.196;6.204;2023-02-15T05:33:23;34.83;;;19.27;;
49131;SDS011;35149;51.196;6.204;2023-02-15T05:35:49;41.92;;;22.08;;
49131;SDS011;35149;51.196;6.204;2023-02-15T05:38:19;45.08;;;20.45;;
49131;SDS011;35149;51.196;6.204;2023-02-15T05:40:46;39.72;;;21.15;;
49131;SDS011;35149;51.196;6.204;2023-02-15T05:43:15;38.13;;;21.63;;
49131;SDS011;35149;51.196;6.204;2023-02-15T05:45:45;42.05;;;23.20;;
49131;SDS011;35149;51.196;6.204;2023-02-15T05:48:15;37.47;;;21.05;;
49131;SDS011;35149;51.196;6.204;2023-02-15T05:50:43;39.13;;;22.48;;
49131;SDS011;35149;51.196;6.204;2023-02-15T05:53:16;38.97;;;21.77;;
49131;SDS011;35149;51.196;6.204;2023-02-15T05:55:46;41.33;;;21.98;;
49131;SDS011;35149;51.196;6.204;2023-02-15T05:58:17;41.28;;;20.95;;
49131;SDS011;35149;51.196;6.204;2023-02-15T06:00:44;40.95;;;21.58;;
49131;SDS011;35149;51.196;6.204;2023-02-15T06:03:13;43.05;;;22.02;;
49131;SDS011;35149;51.196;6.204;2023-02-15T06:05:47;44.70;;;22.15;;
49131;SDS011;35149;51.196;6.204;2023-02-15T06:08:14;38.58;;;21.90;;
49131;SDS011;35149;51.196;6.204;2023-02-15T06:10:47;41.63;;;21.25;;
49131;SDS011;35149;51.196;6.204;2023-02-15T06:13:14;35.95;;;20.23;;
49131;SDS011;35149;51.196;6.204;2023-02-15T06:15:44;37.38;;;20.25;;
49131;SDS011;35149;51.196;6.204;2023-02-15T06:18:11;38.15;;;20.65;;
49131;SDS011;35149;51.196;6.204;2023-02-15T06:20:39;35.78;;;19.48;;
49131;SDS011;35149;51.196;6.204;2023-02-15T06:23:05;38.20;;;20.17;;
49131;SDS011;35149;51.196;6.204;2023-02-15T06:25:33;35.63;;;20.77;;
49131;SDS011;35149;51.196;6.204;2023-02-15T06:28:05;40.17;;;20.67;;
49131;SDS011;35149;51.196;6.204;2023-02-15T06:30:32;38.83;;;20.48;;
49131;SDS011;35149;51.196;6.204;2023-02-15T06:33:02;38.70;;;21.83;;
49131;SDS011;35149;51.196;6.204;2023-02-15T06:35:30;38.45;;;21.80;;
49131;SDS011;35149;51.196;6.204;2023-02-15T06:37:57;40.70;;;20.63;;
49131;SDS011;35149;51.196;6.204;2023-02-15T06:40:29;32.45;;;21.08;;
49131;SDS011;35149;51.196;6.204;2023-02-15T06:42:55;37.35;;;21.75;;
49131;SDS011;35149;51.196;6.204;2023-02-15T06:45:22;40.47;;;21.50;;
49131;SDS011;35149;51.196;6.204;2023-02-15T06:47:53;42.88;;;22.92;;
49131;SDS011;35149;51.196;6.204;2023-02-15T06:50:20;41.95;;;22.38;;
49131;SDS011;35149;51.196;6.204;2023-02-15T06:52:49;46.03;;;23.08;;
49131;SDS011;35149;51.196;6.204;2023-02-15T06:55:21;38.30;;;21.20;;
49131;SDS011;35149;51.196;6.204;2023-02-15T06:57:50;41.92;;;21.02;;
49131;SDS011;35149;51.196;6.204;2023-02-15T07:00:19;49.30;;;22.75;;
49131;SDS011;35149;51.196;6.204;2023-02-15T07:02:56;44.90;;;21.85;;
49131;SDS011;35149;51.196;6.204;2023-02-15T07:05:24;38.85;;;21.77;;
49131;SDS011;35149;51.196;6.204;2023-02-15T07:08:00;38.60;;;21.58;;
49131;SDS011;35149;51.196;6.204;2023-02-15T07:10:30;29.37;;;18.13;;
49131;SDS011;35149;51.196;6.204;2023-02-15T07:13:01;42.00;;;22.13;;
49131;SDS011;35149;51.196;6.204;2023-02-15T07:15:29;39.38;;;21.77;;
49131;SDS011;35149;51.196;6.204;2023-02-15T07:17:59;40.55;;;22.08;;
49131;SDS011;35149;51.196;6.204;2023-02-15T07:20:28;37.80;;;21.98;;
49131;SDS011;35149;51.196;6.204;2023-02-15T07:22:56;35.92;;;21.45;;
49131;SDS011;35149;51.196;6.204;2023-02-15T07:25:30;43.67;;;22.33;;
49131;SDS011;35149;51.196;6.204;2023-02-15T07:27:59;39.80;;;23.05;;
49131;SDS011;35149;51.196;6.204;2023-02-15T07:30:30;38.92;;;20.23;;
49131;SDS011;35149;51.196;6.204;2023-02-15T07:33:02;40.10;;;21.90;;
49131;SDS011;35149;51.196;6.204;2023-02-15T07:35:47;40.20;;;22.13;;
49131;SDS011;35149;51.196;6.204;2023-02-15T07:38:17;39.42;;;21.83;;
49131;SDS011;35149;51.196;6.204;2023-02-15T07:40:46;32.67;;;20.20;;
49131;SDS011;35149;51.196;6.204;2023-02-15T07:43:13;39.65;;;22.48;;
49131;SDS011;35149;51.196;6.204;2023-02-15T07:45:40;38.42;;;22.40;;
49131;SDS011;35149;51.196;6.204;2023-02-15T07:48:09;40.10;;;24.27;;
49131;SDS011;35149;51.196;6.204;2023-02-15T07:50:37;36.97;;;22.48;;
49131;SDS011;35149;51.196;6.204;2023-02-15T07:53:06;38.75;;;21.58;;
49131;SDS011;35149;51.196;6.204;2023-02-15T07:55:34;44.88;;;23.02;;
49131;SDS011;35149;51.196;6.204;2023-02-15T07:58:01;38.80;;;21.85;;
49131;SDS011;35149;51.196;6.204;2023-02-15T08:00:40;39.00;;;22.98;;
49131;SDS011;35149;51.196;6.204;2023-02-15T08:03:25;39.78;;;22.20;;
49131;SDS011;35149;51.196;6.204;2023-02-15T08:05:56;37.72;;;21.35;;
49131;SDS011;35149;51.196;6.204;2023-02-15T08:08:27;35.08;;;20.50;;
49131;SDS011;35149;51.196;6.204;2023-02-15T08:11:00;39.33;;;22.95;;
49131;SDS011;35149;51.196;6.204;2023-02-15T08:16:49;41.75;;;24.90;;
49131;SDS011;35149;51.196;6.204;2023-02-15T08:19:29;43.38;;;22.63;;
49131;SDS011;35149;51.196;6.204;2023-02-15T08:22:03;43.22;;;25.10;;
49131;SDS011;35149;51.196;6.204;2023-02-15T08:24:37;38.90;;;23.75;;
49131;SDS011;35149;51.196;6.204;2023-02-15T08:27:05;39.63;;;23.58;;
49131;SDS011;35149;51.196;6.204;2023-02-15T08:29:33;40.03;;;23.52;;
49131;SDS011;35149;51.196;6.204;2023-02-15T08:32:05;37.30;;;21.98;;
49131;SDS011;35149;51.196;6.204;2023-02-15T08:34:35;42.05;;;22.73;;
49131;SDS011;35149;51.196;6.204;2023-02-15T08:37:11;44.78;;;23.48;;
49131;SDS011;35149;51.196;6.204;2023-02-15T08:39:48;33.15;;;21.77;;
49131;SDS011;35149;51.196;6.204;2023-02-15T08:42:17;36.88;;;21.98;;
49131;SDS011;35149;51.196;6.204;2023-02-15T08:44:46;37.63;;;22.13;;
49131;SDS011;35149;51.196;6.204;2023-02-15T08:47:15;40.63;;;23.67;;
49131;SDS011;35149;51.196;6.204;2023-02-15T08:49:42;41.42;;;22.30;;
49131;SDS011;35149;51.196;6.204;2023-02-15T08:52:08;39.95;;;22.70;;
49131;SDS011;35149;51.196;6.204;2023-02-15T08:54:35;41.63;;;23.48;;
49131;SDS011;35149;51.196;6.204;2023-02-15T08:57:01;39.15;;;23.00;;
49131;SDS011;35149;51.196;6.204;2023-02-15T08:59:31;38.50;;;22.10;;
49131;SDS011;35149;51.196;6.204;2023-02-15T09:02:00;37.95;;;23.08;;
49131;SDS011;35149;51.196;6.204;2023-02-15T09:04:27;37.72;;;21.33;;
49131;SDS011;35149;51.196;6.204;2023-02-15T09:06:55;39.75;;;22.80;;
49131;SDS011;35149;51.196;6.204;2023-02-15T09:09:24;40.03;;;22.05;;
49131;SDS011;35149;51.196;6.204;2023-02-15T09:11:51;36.97;;;21.95;;
49131;SDS011;35149;51.196;6.204;2023-02-15T09:14:24;39.67;;;21.50;;
49131;SDS011;35149;51.196;6.204;2023-02-15T09:16:52;31.63;;;19.88;;
49131;SDS011;35149;51.196;6.204;2023-02-15T09:19:21;36.45;;;22.50;;
49131;SDS011;35149;51.196;6.204;2023-02-15T09:21:48;40.42;;;21.70;;
49131;SDS011;35149;51.196;6.204;2023-02-15T09:24:15;35.40;;;21.23;;
49131;SDS011;35149;51.196;6.204;2023-02-15T09:26:44;37.53;;;22.38;;
49131;SDS011;35149;51.196;6.204;2023-02-15T09:29:14;38.70;;;22.08;;
49131;SDS011;35149;51.196;6.204;2023-02-15T09:31:44;38.60;;;23.23;;
49131;SDS011;35149;51.196;6.204;2023-02-15T09:34:13;35.40;;;22.38;;
49131;SDS011;35149;51.196;6.204;2023-02-15T09:36:45;37.58;;;23.30;;
49131;SDS011;35149;51.196;6.204;2023-02-15T09:39:16;32.10;;;21.42;;
49131;SDS011;35149;51.196;6.204;2023-02-15T09:45:02;34.10;;;21.25;;
49131;SDS011;35149;51.196;6.204;2023-02-15T09:50:17;36.35;;;22.90;;
49131;SDS011;35149;51.196;6.204;2023-02-15T09:59:26;31.70;;;21.27;;
49131;SDS011;35149;51.196;6.204;2023-02-15T10:10:43;36.13;;;22.58;;
49131;SDS011;35149;51.196;6.204;2023-02-15T10:13:28;36.20;;;23.35;;
49131;SDS011;35149;51.196;6.204;2023-02-15T10:16:26;30.45;;;20.92;;
49131;SDS011;35149;51.196;6.204;2023-02-15T10:22:55;36.47;;;22.00;;
49131;SDS011;35149;51.196;6.204;2023-02-15T10:25:05;31.67;;;20.92;;
49131;SDS011;35149;51.196;6.204;2023-02-15T10:27:43;31.17;;;20.77;;
49131;SDS011;35149;51.196;6.204;2023-02-15T10:33:30;29.85;;;20.42;;
49131;SDS011;35149;51.196;6.204;2023-02-15T10:36:11;31.52;;;19.45;;
49131;SDS011;35149;51.196;6.204;2023-02-15T10:39:28;32.75;;;21.08;;
49131;SDS011;35149;51.196;6.204;2023-02-15T10:44:44;29.30;;;18.42;;
49131;SDS011;35149;51.196;6.204;2023-02-15T10:47:24;31.25;;;21.63;;
49131;SDS011;35149;51.196;6.204;2023-02-15T10:50:11;33.10;;;21.25;;
49131;SDS011;35149;51.196;6.204;2023-02-15T10:55:30;32.58;;;21.70;;
49131;SDS011;35149;51.196;6.204;2023-02-15T11:00:47;29.67;;;19.48;;
49131;SDS011;35149;51.196;6.204;2023-02-15T11:03:36;31.52;;;19.98;;
49131;SDS011;35149;51.196;6.204;2023-02-15T11:06:19;28.33;;;19.00;;
49131;SDS011;35149;51.196;6.204;2023-02-15T11:08:50;31.50;;;19.70;;
49131;SDS011;35149;51.196;6.204;2023-02-15T11:11:27;30.50;;;20.67;;
49131;SDS011;35149;51.196;6.204;2023-02-15T11:14:05;29.25;;;19.38;;
49131;SDS011;35149;51.196;6.204;2023-02-15T11:16:58;31.15;;;20.40;;
49131;SDS011;35149;51.196;6.204;2023-02-15T11:19:49;30.23;;;20.25;;
49131;SDS011;35149;51.196;6.204;2023-02-15T11:22:36;34.45;;;20.45;;
49131;SDS011;35149;51.196;6.204;2023-02-15T11:25:05;33.45;;;21.13;;
49131;SDS011;35149;51.196;6.204;2023-02-15T11:27:49;31.35;;;20.90;;
49131;SDS011;35149;51.196;6.204;2023-02-15T11:30:19;33.47;;;22.00;;
49131;SDS011;35149;51.196;6.204;2023-02-15T11:32:57;30.95;;;20.80;;
49131;SDS011;35149;51.196;6.204;2023-02-15T11:35:36;31.52;;;21.13;;
49131;SDS011;35149;51.196;6.204;2023-02-15T11:38:14;22.20;;;14.30;;
49131;SDS011;35149;51.196;6.204;2023-02-15T11:46:41;28.65;;;19.20;;
49131;SDS011;35149;51.196;6.204;2023-02-15T11:49:30;28.75;;;19.38;;
49131;SDS011;35149;51.196;6.204;2023-02-15T11:52:03;30.30;;;20.45;;
49131;SDS011;35149;51.196;6.204;2023-02-15T11:54:37;29.55;;;20.92;;
49131;SDS011;35149;51.196;6.204;2023-02-15T11:57:15;32.20;;;21.27;;
49131;SDS011;35149;51.196;6.204;2023-02-15T11:59:54;29.10;;;20.80;;
49131;SDS011;35149;51.196;6.204;2023-02-15T12:02:24;31.00;;;21.80;;
49131;SDS011;35149;51.196;6.204;2023-02-15T12:05:09;25.88;;;19.92;;
49131;SDS011;35149;51.196;6.204;2023-02-15T12:07:45;29.33;;;20.30;;
49131;SDS011;35149;51.196;6.204;2023-02-15T12:10:22;32.30;;;21.92;;
49131;SDS011;35149;51.196;6.204;2023-02-15T12:13:15;37.00;;;21.65;;
49131;SDS011;35149;51.196;6.204;2023-02-15T12:15:42;23.90;;;17.90;;
49131;SDS011;35149;51.196;6.204;2023-02-15T12:18:19;34.92;;;20.95;;
49131;SDS011;35149;51.196;6.204;2023-02-15T12:21:15;27.17;;;19.05;;
49131;SDS011;35149;51.196;6.204;2023-02-15T12:23:56;29.15;;;20.30;;
49131;SDS011;35149;51.196;6.204;2023-02-15T12:26:34;28.70;;;19.17;;
49131;SDS011;35149;51.196;6.204;2023-02-15T12:29:01;26.45;;;19.15;;
49131;SDS011;35149;51.196;6.204;2023-02-15T12:31:40;33.05;;;20.20;;
49131;SDS011;35149;51.196;6.204;2023-02-15T12:34:29;27.40;;;20.27;;
49131;SDS011;35149;51.196;6.204;2023-02-15T12:37:04;29.52;;;19.60;;
49131;SDS011;35149;51.196;6.204;2023-02-15T12:39:57;27.05;;;18.42;;
49131;SDS011;35149;51.196;6.204;2023-02-15T12:42:44;27.63;;;19.27;;
49131;SDS011;35149;51.196;6.204;2023-02-15T12:48:07;28.23;;;18.38;;
49131;SDS011;35149;51.196;6.204;2023-02-15T12:50:34;28.67;;;17.80;;
49131;SDS011;35149;51.196;6.204;2023-02-15T12:53:08;28.27;;;18.95;;
49131;SDS011;35149;51.196;6.204;2023-02-15T12:55:50;27.27;;;18.35;;
49131;SDS011;35149;51.196;6.204;2023-02-15T12:58:31;24.08;;;17.58;;
49131;SDS011;35149;51.196;6.204;2023-02-15T13:01:18;29.60;;;19.35;;
49131;SDS011;35149;51.196;6.204;2023-02-15T13:03:56;28.83;;;18.45;;
49131;SDS011;35149;51.196;6.204;2023-02-15T13:06:25;28.08;;;18.45;;
49131;SDS011;35149;51.196;6.204;2023-02-15T13:08:59;29.23;;;19.45;;
49131;SDS011;35149;51.196;6.204;2023-02-15T13:11:41;29.15;;;19.30;;
49131;SDS011;35149;51.196;6.204;2023-02-15T13:14:25;30.53;;;18.53;;
49131;SDS011;35149;51.196;6.204;2023-02-15T13:17:02;24.90;;;17.88;;
49131;SDS011;35149;51.196;6.204;2023-02-15T13:19:39;27.13;;;18.15;;
49131;SDS011;35149;51.196;6.204;2023-02-15T13:22:20;28.23;;;18.10;;
49131;SDS011;35149;51.196;6.204;2023-02-15T13:27:44;29.08;;;16.83;;
49131;SDS011;35149;51.196;6.204;2023-02-15T13:30:19;26.20;;;17.80;;
49131;SDS011;35149;51.196;6.204;2023-02-15T13:33:03;24.13;;;17.33;;
49131;SDS011;35149;51.196;6.204;2023-02-15T13:35:44;27.10;;;18.38;;
49131;SDS011;35149;51.196;6.204;2023-02-15T13:40:55;27.27;;;16.63;;
49131;SDS011;35149;51.196;6.204;2023-02-15T13:47:01;24.88;;;16.90;;
49131;SDS011;35149;51.196;6.204;2023-02-15T13:49:27;25.65;;;17.90;;
49131;SDS011;35149;51.196;6.204;2023-02-15T13:52:23;25.15;;;15.82;;
49131;SDS011;35149;51.196;6.204;2023-02-15T14:01:14;24.23;;;17.33;;
49131;SDS011;35149;51.196;6.204;2023-02-15T14:06:37;21.65;;;15.85;;
49131;SDS011;35149;51.196;6.204;2023-02-15T14:12:02;19.92;;;15.65;;
49131;SDS011;35149;51.196;6.204;2023-02-15T14:17:45;21.20;;;14.25;;
49131;SDS011;35149;51.196;6.204;2023-02-15T14:24:22;20.48;;;14.65;;
49131;SDS011;35149;51.196;6.204;2023-02-15T14:32:04;18.25;;;14.80;;
49131;SDS011;35149;51.196;6.204;2023-02-15T14:34:42;19.42;;;14.57;;
49131;SDS011;35149;51.196;6.204;2023-02-15T14:37:21;20.88;;;15.13;;
49131;SDS011;35149;51.196;6.204;2023-02-15T14:49:18;21.10;;;15.60;;
49131;SDS011;35149;51.196;6.204;2023-02-15T14:51:54;26.55;;;15.95;;
49131;SDS011;35149;51.196;6.204;2023-02-15T14:59:26;20.95;;;14.65;;
49131;SDS011;35149;51.196;6.204;2023-02-15T15:02:22;19.45;;;14.15;;
49131;SDS011;35149;51.196;6.204;2023-02-15T15:05:00;20.45;;;13.35;;
49131;SDS011;35149;51.196;6.204;2023-02-15T15:07:37;20.80;;;13.27;;
49131;SDS011;35149;51.196;6.204;2023-02-15T15:12:46;19.60;;;14.55;;
49131;SDS011;35149;51.196;6.204;2023-02-15T15:20:50;21.75;;;14.60;;
49131;SDS011;35149;51.196;6.204;2023-02-15T15:23:38;21.92;;;14.77;;
49131;SDS011;35149;51.196;6.204;2023-02-15T15:26:21;19.00;;;14.18;;
49131;SDS011;35149;51.196;6.204;2023-02-15T15:31:20;19.20;;;14.98;;
49131;SDS011;35149;51.196;6.204;2023-02-15T15:51:00;21.25;;;13.70;;
49131;SDS011;35149;51.196;6.204;2023-02-15T15:53:34;20.40;;;15.30;;
49131;SDS011;35149;51.196;6.204;2023-02-15T15:56:10;22.83;;;16.65;;
49131;SDS011;35149;51.196;6.204;2023-02-15T15:58:44;21.80;;;15.88;;
49131;SDS011;35149;51.196;6.204;2023-02-15T16:01:16;22.88;;;16.33;;
49131;SDS011;35149;51.196;6.204;2023-02-15T16:03:50;17.70;;;15.00;;
49131;SDS011;35149;51.196;6.204;2023-02-15T16:06:35;22.73;;;15.30;;
49131;SDS011;35149;51.196;6.204;2023-02-15T16:09:21;20.30;;;14.60;;
49131;SDS011;35149;51.196;6.204;2023-02-15T16:11:52;22.10;;;15.93;;
49131;SDS011;35149;51.196;6.204;2023-02-15T16:14:30;20.80;;;15.20;;
49131;SDS011;35149;51.196;6.204;2023-02-15T16:17:04;20.42;;;15.48;;
49131;SDS011;35149;51.196;6.204;2023-02-15T16:19:38;20.08;;;15.38;;
49131;SDS011;35149;51.196;6.204;2023-02-15T16:22:11;23.02;;;15.65;;
49131;SDS011;35149;51.196;6.204;2023-02-15T16:29:56;17.95;;;14.15;;
49131;SDS011;35149;51.196;6.204;2023-02-15T16:32:23;20.98;;;15.07;;
49131;SDS011;35149;51.196;6.204;2023-02-15T16:34:55;19.52;;;15.32;;
49131;SDS011;35149;51.196;6.204;2023-02-15T16:37:27;20.05;;;14.90;;
49131;SDS011;35149;51.196;6.204;2023-02-15T16:39:58;20.13;;;15.30;;
49131;SDS011;35149;51.196;6.204;2023-02-15T16:42:25;19.23;;;15.32;;
49131;SDS011;35149;51.196;6.204;2023-02-15T16:45:05;23.42;;;16.38;;
49131;SDS011;35149;51.196;6.204;2023-02-15T16:47:41;21.95;;;15.60;;
49131;SDS011;35149;51.196;6.204;2023-02-15T16:50:20;23.90;;;15.57;;
49131;SDS011;35149;51.196;6.204;2023-02-15T16:52:58;18.38;;;14.80;;
49131;SDS011;35149;51.196;6.204;2023-02-15T16:55:30;19.75;;;14.70;;
49131;SDS011;35149;51.196;6.204;2023-02-15T16:58:05;20.02;;;14.60;;
49131;SDS011;35149;51.196;6.204;2023-02-15T17:00:36;19.23;;;14.75;;
49131;SDS011;35149;51.196;6.204;2023-02-15T17:03:19;19.30;;;15.43;;
49131;SDS011;35149;51.196;6.204;2023-02-15T17:05:56;21.88;;;16.00;;
49131;SDS011;35149;51.196;6.204;2023-02-15T17:16:30;25.95;;;17.58;;
49131;SDS011;35149;51.196;6.204;2023-02-15T17:19:00;21.85;;;17.20;;
49131;SDS011;35149;51.196;6.204;2023-02-15T17:21:32;25.00;;;17.90;;
49131;SDS011;35149;51.196;6.204;2023-02-15T17:24:03;23.95;;;17.23;;
49131;SDS011;35149;51.196;6.204;2023-02-15T17:26:31;22.73;;;17.42;;
49131;SDS011;35149;51.196;6.204;2023-02-15T17:29:46;21.98;;;17.95;;
49131;SDS011;35149;51.196;6.204;2023-02-15T17:31:52;20.70;;;16.73;;
49131;SDS011;35149;51.196;6.204;2023-02-15T17:37:31;21.52;;;16.25;;
49131;SDS011;35149;51.196;6.204;2023-02-15T17:40:21;20.63;;;16.80;;
49131;SDS011;35149;51.196;6.204;2023-02-15T17:42:52;25.10;;;17.15;;
49131;SDS011;35149;51.196;6.204;2023-02-15T17:45:19;18.52;;;15.77;;